createdAt,value
2018-11-29T00:00:37.773Z,19.57
2018-11-29T00:03:08.272Z,19.90
2018-11-29T00:05:37.359Z,20.63
2018-11-29T00:08:06.775Z,22.30
2018-11-29T00:10:35.746Z,20.47
2018-11-29T00:13:05.182Z,19.63
2018-11-29T00:15:34.435Z,20.07
2018-11-29T00:18:03.485Z,20.77
2018-11-29T00:20:32.987Z,19.57
2018-11-29T00:23:01.941Z,20.57
2018-11-29T00:25:30.822Z,20.77
2018-11-29T00:27:59.755Z,21.10
2018-11-29T00:30:28.591Z,20.53
2018-11-29T00:32:57.642Z,21.10
2018-11-29T00:35:26.542Z,20.00
2018-11-29T00:37:55.521Z,19.63
2018-11-29T00:40:24.607Z,20.97
2018-11-29T00:42:53.593Z,19.33
2018-11-29T00:45:24.147Z,19.43
2018-11-29T00:47:53.240Z,20.60
2018-11-29T00:50:22.320Z,20.10
2018-11-29T00:52:51.720Z,20.27
2018-11-29T00:55:22.673Z,19.80
2018-11-29T00:57:52.412Z,19.67
2018-11-29T01:00:23.702Z,19.87
2018-11-29T01:02:52.643Z,19.43
2018-11-29T01:05:21.632Z,20.33
2018-11-29T01:07:50.518Z,21.20
2018-11-29T01:10:19.761Z,19.73
2018-11-29T01:12:49.013Z,19.03
2018-11-29T01:15:20.168Z,18.63
2018-11-29T01:17:50.111Z,19.13
2018-11-29T01:20:21.070Z,19.90
2018-11-29T01:22:50.022Z,20.87
2018-11-29T01:25:19.007Z,18.93
2018-11-29T01:27:49.527Z,17.70
2018-11-29T01:30:19.793Z,20.47
2018-11-29T01:32:48.711Z,19.73
2018-11-29T01:35:19.305Z,20.97
2018-11-29T01:37:48.635Z,20.67
2018-11-29T01:40:22.144Z,21.07
2018-11-29T01:42:57.414Z,20.10
2018-11-29T01:45:26.844Z,20.50
2018-11-29T01:47:56.776Z,19.97
2018-11-29T01:50:25.674Z,21.00
2018-11-29T01:52:54.537Z,18.20
2018-11-29T01:55:23.491Z,20.70
2018-11-29T01:57:52.437Z,20.27
2018-11-29T02:00:21.429Z,21.33
2018-11-29T02:02:51.925Z,18.70
2018-11-29T02:05:20.863Z,21.50
2018-11-29T02:07:49.725Z,21.03
2018-11-29T02:10:27.281Z,21.67
2018-11-29T02:12:56.315Z,21.50
2018-11-29T02:15:25.326Z,20.23
2018-11-29T02:17:54.198Z,21.63
2018-11-29T02:20:23.440Z,20.13
2018-11-29T02:22:52.337Z,21.30
2018-11-29T02:25:21.522Z,21.07
2018-11-29T02:27:50.338Z,21.90
2018-11-29T02:30:23.669Z,20.30
2018-11-29T02:32:52.872Z,20.80
2018-11-29T02:35:21.886Z,21.53
2018-11-29T02:37:50.743Z,20.30
2018-11-29T02:40:19.873Z,21.83
2018-11-29T02:42:49.728Z,21.00
2018-11-29T02:45:23.630Z,20.70
2018-11-29T02:47:52.592Z,20.87
2018-11-29T02:50:21.440Z,21.70
2018-11-29T02:52:50.416Z,21.67
2018-11-29T02:55:19.292Z,20.70
2018-11-29T02:57:48.163Z,21.90
2018-11-29T03:00:18.965Z,20.97
2018-11-29T03:02:48.028Z,20.03
2018-11-29T03:05:17.540Z,20.63
2018-11-29T03:07:46.516Z,20.43
2018-11-29T03:10:20.224Z,20.57
2018-11-29T03:12:49.122Z,18.77
2018-11-29T03:15:17.974Z,20.80
2018-11-29T03:17:46.967Z,19.87
2018-11-29T03:20:15.834Z,20.43
2018-11-29T03:22:44.747Z,20.73
2018-11-29T03:25:15.296Z,20.40
2018-11-29T03:27:44.644Z,22.30
2018-11-29T03:30:17.468Z,20.37
2018-11-29T03:32:46.360Z,20.63
2018-11-29T03:35:15.827Z,21.83
2018-11-29T03:37:44.800Z,22.17
2018-11-29T03:40:15.243Z,21.93
2018-11-29T03:42:44.808Z,20.47
2018-11-29T03:45:15.672Z,21.10
2018-11-29T03:47:45.261Z,21.37
2018-11-29T03:50:17.901Z,22.27
2018-11-29T03:52:47.298Z,22.93
2018-11-29T03:55:16.180Z,21.80
2018-11-29T03:57:45.122Z,21.80
2018-11-29T04:00:16.243Z,23.93
2018-11-29T04:02:47.080Z,21.40
2018-11-29T04:05:16.222Z,22.27
2018-11-29T04:07:45.212Z,22.70
2018-11-29T04:10:15.444Z,21.93
2018-11-29T04:12:44.376Z,21.53
2018-11-29T04:15:14.589Z,20.73
2018-11-29T04:17:44.069Z,22.73
2018-11-29T04:20:15.236Z,22.67
2018-11-29T04:22:44.169Z,21.43
2018-11-29T04:25:14.295Z,22.73
2018-11-29T04:27:43.249Z,23.37
2018-11-29T04:30:13.864Z,24.33
2018-11-29T04:32:42.881Z,21.37
2018-11-29T04:35:12.280Z,21.23
2018-11-29T04:37:41.250Z,21.83
2018-11-29T04:40:14.662Z,20.57
2018-11-29T04:42:43.729Z,22.27
2018-11-29T04:45:17.004Z,22.07
2018-11-29T04:47:46.391Z,21.37
2018-11-29T04:50:16.483Z,21.77
2018-11-29T04:52:45.509Z,22.77
2018-11-29T04:55:14.748Z,21.93
2018-11-29T04:57:43.604Z,21.87
2018-11-29T05:00:15.317Z,23.17
2018-11-29T05:02:44.524Z,21.63
2018-11-29T05:05:13.994Z,22.50
2018-11-29T05:07:42.894Z,22.20
2018-11-29T05:10:16.009Z,22.23
2018-11-29T05:12:45.439Z,22.20
2018-11-29T05:15:14.434Z,21.33
2018-11-29T05:17:43.302Z,23.00
2018-11-29T05:20:12.203Z,20.10
2018-11-29T05:22:41.040Z,23.50
2018-11-29T05:25:09.950Z,21.40
2018-11-29T05:27:38.919Z,20.90
2018-11-29T05:30:13.215Z,23.30
2018-11-29T05:32:42.126Z,23.33
2018-11-29T05:35:12.109Z,22.67
2018-11-29T05:37:41.563Z,21.67
2018-11-29T05:40:12.323Z,22.23
2018-11-29T05:42:41.329Z,22.13
2018-11-29T05:45:11.064Z,23.27
2018-11-29T05:47:39.968Z,23.63
2018-11-29T05:50:10.763Z,24.87
2018-11-29T05:52:40.054Z,23.80
2018-11-29T05:55:11.059Z,25.63
2018-11-29T05:57:39.971Z,23.90
2018-11-29T06:00:13.175Z,24.00
2018-11-29T06:02:42.581Z,23.27
2018-11-29T06:05:13.376Z,23.90
2018-11-29T06:07:42.268Z,23.27
2018-11-29T06:10:11.169Z,23.67
2018-11-29T06:12:40.042Z,24.83
2018-11-29T06:15:11.692Z,23.10
2018-11-29T06:17:41.003Z,23.07
2018-11-29T06:20:12.543Z,23.47
2018-11-29T06:22:41.454Z,22.63
2018-11-29T06:25:10.696Z,22.60
2018-11-29T06:27:39.768Z,25.90
2018-11-29T06:30:17.017Z,24.87
2018-11-29T06:32:46.269Z,23.87
2018-11-29T06:35:15.241Z,22.83
2018-11-29T06:37:44.134Z,24.53
2018-11-29T06:40:14.299Z,24.10
2018-11-29T06:42:43.355Z,24.10
2018-11-29T06:45:17.698Z,22.93
2018-11-29T06:47:47.705Z,23.03
2018-11-29T06:50:16.719Z,23.47
2018-11-29T06:52:47.124Z,21.73
2018-11-29T06:55:20.549Z,24.50
2018-11-29T06:57:49.543Z,22.23
2018-11-29T07:00:35.775Z,23.73
2018-11-29T07:03:05.402Z,21.93
2018-11-29T07:05:34.368Z,22.57
2018-11-29T07:08:03.395Z,23.80
2018-11-29T07:10:35.048Z,23.13
2018-11-29T07:13:06.230Z,23.27
2018-11-29T07:15:35.131Z,22.97
2018-11-29T07:18:04.124Z,24.47
2018-11-29T07:20:33.098Z,23.07
2018-11-29T07:23:01.953Z,24.57
2018-11-29T07:25:30.830Z,22.90
2018-11-29T07:27:59.653Z,22.50
2018-11-29T07:30:28.696Z,23.33
2018-11-29T07:32:57.530Z,23.03
2018-11-29T07:35:26.440Z,22.80
2018-11-29T07:37:55.279Z,22.87
2018-11-29T07:40:24.158Z,23.67
2018-11-29T07:42:54.607Z,22.97
2018-11-29T07:45:24.001Z,22.47
2018-11-29T07:47:52.881Z,22.50
2018-11-29T07:50:22.958Z,22.73
2018-11-29T07:52:51.815Z,23.27
2018-11-29T07:55:21.726Z,23.60
2018-11-29T07:57:52.129Z,22.67
2018-11-29T08:00:21.174Z,23.67
2018-11-29T08:02:50.125Z,23.40
2018-11-29T08:05:19.011Z,22.93
2018-11-29T08:07:48.937Z,24.43
2018-11-29T08:10:19.121Z,23.40
2018-11-29T08:12:48.315Z,23.60
2018-11-29T08:15:20.166Z,23.63
2018-11-29T08:17:49.254Z,24.10
2018-11-29T08:20:20.634Z,24.37
2018-11-29T08:22:49.532Z,25.37
2018-11-29T08:25:18.466Z,23.63
2018-11-29T08:27:47.410Z,24.03
2018-11-29T08:30:16.913Z,23.77
2018-11-29T08:32:45.809Z,24.50
2018-11-29T08:35:15.713Z,23.60
2018-11-29T08:37:46.153Z,23.43
2018-11-29T08:40:19.877Z,24.20
2018-11-29T08:42:48.838Z,23.87
2018-11-29T08:45:17.735Z,23.70
2018-11-29T08:47:46.769Z,25.23
2018-11-29T08:50:15.920Z,24.13
2018-11-29T08:52:46.481Z,26.47
2018-11-29T08:55:17.925Z,26.83
2018-11-29T08:57:47.924Z,29.43
2018-11-29T09:00:19.311Z,24.77
2018-11-29T09:02:48.372Z,25.97
2018-11-29T09:05:17.368Z,25.30
2018-11-29T09:07:47.663Z,24.93
2018-11-29T09:10:18.575Z,26.23
2018-11-29T09:12:47.543Z,23.53
2018-11-29T09:15:17.415Z,25.00
2018-11-29T09:17:46.711Z,22.57
2018-11-29T09:20:17.999Z,24.40
2018-11-29T09:22:46.879Z,27.17
2018-11-29T09:25:17.340Z,23.63
2018-11-29T09:27:46.288Z,21.73
2018-11-29T09:30:18.590Z,25.03
2018-11-29T09:32:48.939Z,23.20
2018-11-29T09:35:19.279Z,24.57
2018-11-29T09:37:48.199Z,24.57
2018-11-29T09:40:18.122Z,25.57
2018-11-29T09:42:47.292Z,23.43
2018-11-29T09:45:24.178Z,23.10
2018-11-29T09:47:56.756Z,24.00
2018-11-29T09:50:26.369Z,22.90
2018-11-29T09:52:55.595Z,22.33
2018-11-29T09:55:24.502Z,22.97
2018-11-29T09:57:53.406Z,23.13
2018-11-29T10:00:28.044Z,22.47
2018-11-29T10:03:09.677Z,22.27
2018-11-29T10:05:39.478Z,23.23
2018-11-29T10:08:11.978Z,23.00
2018-11-29T10:10:39.477Z,22.40
2018-11-29T10:13:08.426Z,22.97
2018-11-29T10:15:37.466Z,21.37
2018-11-29T10:18:07.298Z,21.87
2018-11-29T10:20:36.131Z,21.90
2018-11-29T10:23:05.622Z,22.43
2018-11-29T10:25:36.493Z,20.60
2018-11-29T10:28:18.625Z,22.00
2018-11-29T10:30:56.188Z,21.60
2018-11-29T10:33:25.440Z,23.60
2018-11-29T10:35:59.070Z,21.97
2018-11-29T10:38:23.658Z,21.83
2018-11-29T10:40:52.575Z,21.77
2018-11-29T10:43:21.503Z,21.47
2018-11-29T10:45:50.469Z,23.20
2018-11-29T10:48:21.929Z,22.77
2018-11-29T10:50:50.910Z,22.23
2018-11-29T10:53:20.035Z,23.03
2018-11-29T10:55:48.929Z,23.60
2018-11-29T10:58:17.828Z,22.70
2018-11-29T11:00:52.299Z,22.83
2018-11-29T11:03:21.579Z,23.67
2018-11-29T11:05:52.166Z,24.37
2018-11-29T11:08:21.368Z,24.17
2018-11-29T11:10:50.620Z,22.93
2018-11-29T11:13:19.475Z,23.63
2018-11-29T11:15:48.360Z,22.73
2018-11-29T11:18:17.906Z,24.30
2018-11-29T11:20:46.817Z,23.93
2018-11-29T11:23:15.722Z,23.73
2018-11-29T11:25:44.655Z,21.63
2018-11-29T11:28:13.469Z,22.87
2018-11-29T11:30:43.872Z,23.00
2018-11-29T11:33:12.724Z,22.47
2018-11-29T11:35:41.727Z,24.47
2018-11-29T11:38:10.562Z,22.83
2018-11-29T11:40:39.449Z,23.77
2018-11-29T11:43:08.533Z,21.57
2018-11-29T11:45:37.440Z,21.57
2018-11-29T11:48:07.151Z,23.73
2018-11-29T11:50:36.978Z,23.03
2018-11-29T11:53:07.792Z,23.40
2018-11-29T11:55:37.577Z,22.63
2018-11-29T11:58:07.602Z,22.30
2018-11-29T12:00:37.165Z,20.97
2018-11-29T12:03:13.056Z,23.17
2018-11-29T12:05:42.239Z,24.87
2018-11-29T12:08:11.211Z,23.00
2018-11-29T12:10:41.970Z,22.20
2018-11-29T12:13:10.932Z,22.70
2018-11-29T12:15:39.775Z,22.23
2018-11-29T12:18:10.844Z,23.53
2018-11-29T12:20:39.816Z,21.57
2018-11-29T12:23:09.210Z,23.13
2018-11-29T12:25:38.035Z,22.03
2018-11-29T12:28:07.110Z,22.40
2018-11-29T12:30:41.225Z,20.90
2018-11-29T12:33:10.158Z,21.37
2018-11-29T12:35:39.059Z,21.37
2018-11-29T12:38:07.968Z,20.20
2018-11-29T12:40:36.797Z,20.57
2018-11-29T12:43:05.838Z,22.07
2018-11-29T12:45:35.043Z,20.17
2018-11-29T12:48:03.923Z,22.37
2018-11-29T12:50:34.399Z,21.37
2018-11-29T12:53:03.315Z,20.77
2018-11-29T12:55:32.159Z,19.50
2018-11-29T12:58:06.112Z,20.30
2018-11-29T13:00:30.071Z,19.50
2018-11-29T13:02:59.643Z,22.70
2018-11-29T13:05:29.116Z,19.83
2018-11-29T13:07:58.086Z,20.00
2018-11-29T13:10:27.971Z,19.90
2018-11-29T13:12:56.858Z,20.77
2018-11-29T13:15:31.323Z,20.30
2018-11-29T13:18:03.045Z,21.27
2018-11-29T13:20:32.731Z,20.67
2018-11-29T13:23:00.884Z,19.53
2018-11-29T13:25:29.842Z,20.63
2018-11-29T13:27:58.720Z,20.37
2018-11-29T13:30:27.570Z,19.03
2018-11-29T13:32:57.245Z,19.83
2018-11-29T13:35:31.092Z,22.23
2018-11-29T13:38:03.210Z,19.57
2018-11-29T13:40:32.132Z,18.80
2018-11-29T13:43:01.077Z,20.07
2018-11-29T13:45:29.955Z,19.33
2018-11-29T13:47:58.787Z,22.43
2018-11-29T13:50:27.798Z,20.30
2018-11-29T13:52:56.626Z,19.77
2018-11-29T13:55:25.637Z,21.07
2018-11-29T13:57:54.544Z,19.80
2018-11-29T14:00:24.108Z,18.43
2018-11-29T14:02:57.084Z,18.50
2018-11-29T14:05:26.097Z,18.40
2018-11-29T14:07:55.212Z,18.60
2018-11-29T14:10:24.844Z,18.07
2018-11-29T14:12:55.407Z,18.40
2018-11-29T14:15:26.227Z,19.20
2018-11-29T14:17:55.240Z,19.10
2018-11-29T14:20:24.253Z,18.30
2018-11-29T14:22:53.137Z,17.87
2018-11-29T14:25:22.144Z,18.83
2018-11-29T14:27:54.686Z,18.03
2018-11-29T14:30:26.982Z,17.73
2018-11-29T14:32:58.510Z,17.67
2018-11-29T14:35:27.523Z,16.57
2018-11-29T14:37:56.740Z,17.33
2018-11-29T14:40:27.545Z,16.80
2018-11-29T14:42:56.454Z,17.93
2018-11-29T14:45:26.458Z,18.17
2018-11-29T14:47:55.844Z,17.93
2018-11-29T14:50:32.040Z,17.43
2018-11-29T14:53:01.034Z,18.63
2018-11-29T14:55:29.915Z,16.00
2018-11-29T14:57:58.858Z,16.87
2018-11-29T15:00:27.778Z,17.20
2018-11-29T15:02:57.981Z,17.53
2018-11-29T15:05:29.912Z,17.67
2018-11-29T15:07:59.889Z,16.67
2018-11-29T15:10:28.802Z,16.43
2018-11-29T15:12:57.993Z,17.23
2018-11-29T15:15:26.916Z,17.07
2018-11-29T15:17:55.944Z,15.47
2018-11-29T15:20:27.304Z,17.30
2018-11-29T15:22:56.072Z,15.47
2018-11-29T15:25:24.937Z,15.73
2018-11-29T15:27:53.870Z,16.60
2018-11-29T15:30:23.509Z,16.73
2018-11-29T15:32:53.311Z,15.43
2018-11-29T15:35:23.544Z,17.27
2018-11-29T15:37:52.454Z,16.20
2018-11-29T15:40:21.509Z,16.13
2018-11-29T15:42:50.544Z,16.30
2018-11-29T15:45:22.027Z,14.23
2018-11-29T15:47:51.087Z,15.90
2018-11-29T15:50:20.022Z,16.13
2018-11-29T15:52:48.944Z,14.23
2018-11-29T15:55:20.511Z,15.27
2018-11-29T15:57:50.892Z,15.23
2018-11-29T16:00:28.146Z,15.43
2018-11-29T16:02:59.677Z,14.77
2018-11-29T16:05:28.625Z,14.47
2018-11-29T16:07:57.543Z,14.67
2018-11-29T16:10:27.279Z,15.23
2018-11-29T16:12:56.118Z,14.27
2018-11-29T16:15:25.076Z,14.47
2018-11-29T16:17:54.500Z,14.83
2018-11-29T16:20:31.321Z,14.27
2018-11-29T16:23:00.452Z,13.93
2018-11-29T16:25:29.404Z,14.53
2018-11-29T16:27:58.405Z,14.93
2018-11-29T16:30:48.605Z,12.87
2018-11-29T16:33:25.706Z,15.37
2018-11-29T16:35:55.438Z,14.13
2018-11-29T16:38:24.551Z,11.90
2018-11-29T16:40:53.485Z,14.53
2018-11-29T16:43:22.628Z,14.33
2018-11-29T16:45:51.483Z,13.20
2018-11-29T16:48:20.374Z,13.07
2018-11-29T16:50:49.387Z,14.37
2018-11-29T16:53:18.330Z,13.50
2018-11-29T16:55:47.205Z,12.80
2018-11-29T16:58:20.653Z,15.10
2018-11-29T17:00:49.569Z,14.27
2018-11-29T17:03:18.506Z,12.60
2018-11-29T17:05:47.429Z,13.93
2018-11-29T17:08:16.675Z,14.03
2018-11-29T17:10:45.532Z,12.87
2018-11-29T17:13:16.735Z,14.10
2018-11-29T17:15:45.720Z,13.10
2018-11-29T17:18:14.738Z,12.83
2018-11-29T17:20:43.653Z,13.80
2018-11-29T17:23:12.943Z,13.13
2018-11-29T17:25:42.069Z,13.77
2018-11-29T17:28:11.904Z,11.97
2018-11-29T17:30:40.758Z,12.10
2018-11-29T17:33:10.479Z,12.03
2018-11-29T17:35:46.572Z,13.17
2018-11-29T17:38:17.354Z,13.20
2018-11-29T17:40:48.273Z,12.57
2018-11-29T17:43:17.766Z,14.53
2018-11-29T17:45:47.533Z,14.33
2018-11-29T17:48:16.860Z,14.20
2018-11-29T17:50:45.803Z,13.60
2018-11-29T17:53:14.647Z,12.37
2018-11-29T17:55:43.705Z,12.37
2018-11-29T17:58:14.595Z,13.33
2018-11-29T18:00:46.081Z,13.10
2018-11-29T18:03:19.227Z,13.70
2018-11-29T18:05:48.852Z,12.57
2018-11-29T18:08:17.712Z,13.23
2018-11-29T18:10:49.939Z,13.23
2018-11-29T18:13:25.847Z,12.77
2018-11-29T18:15:54.775Z,10.73
2018-11-29T18:18:23.557Z,13.30
2018-11-29T18:20:52.526Z,12.37
2018-11-29T18:23:21.357Z,11.73
2018-11-29T18:25:50.313Z,11.20
2018-11-29T18:28:19.152Z,11.83
2018-11-29T18:30:48.001Z,11.83
2018-11-29T18:33:16.898Z,12.53
2018-11-29T18:35:45.739Z,12.17
2018-11-29T18:38:14.569Z,13.40
2018-11-29T18:40:43.469Z,11.47
2018-11-29T18:43:12.307Z,11.30
2018-11-29T18:45:41.368Z,10.53
2018-11-29T18:48:10.811Z,12.03
2018-11-29T18:50:40.303Z,10.33
2018-11-29T18:53:09.194Z,11.83
2018-11-29T18:55:38.101Z,10.77
2018-11-29T18:58:07.695Z,10.10
2018-11-29T19:00:37.467Z,11.07
2018-11-29T19:03:07.895Z,9.90
2018-11-29T19:05:36.701Z,10.20
2018-11-29T19:08:07.585Z,10.03
2018-11-29T19:10:36.505Z,10.47
2018-11-29T19:13:09.116Z,10.90
2018-11-29T19:15:38.348Z,10.77
2018-11-29T19:18:10.510Z,10.20
2018-11-29T19:20:37.666Z,10.53
2018-11-29T19:23:06.876Z,9.93
2018-11-29T19:25:36.948Z,10.67
2018-11-29T19:28:06.734Z,9.90
2018-11-29T19:30:35.927Z,8.10
2018-11-29T19:33:21.898Z,9.77
2018-11-29T19:35:52.888Z,9.27
2018-11-29T19:38:21.788Z,10.83
2018-11-29T19:40:50.664Z,9.50
2018-11-29T19:43:19.597Z,9.90
2018-11-29T19:45:48.493Z,10.40
2018-11-29T19:48:17.398Z,11.13
2018-11-29T19:50:46.324Z,12.77
2018-11-29T19:53:22.948Z,9.30
2018-11-29T19:55:54.670Z,10.13
2018-11-29T19:58:23.544Z,9.83
2018-11-29T20:00:56.075Z,10.27
2018-11-29T20:03:24.974Z,10.20
2018-11-29T20:05:53.882Z,9.70
2018-11-29T20:08:22.736Z,8.87
2018-11-29T20:10:51.635Z,9.87
2018-11-29T20:13:21.426Z,11.10
2018-11-29T20:15:52.331Z,8.90
2018-11-29T20:18:21.277Z,9.00
2018-11-29T20:20:50.538Z,9.73
2018-11-29T20:23:19.442Z,9.50
2018-11-29T20:25:48.384Z,8.80
2018-11-29T20:28:17.535Z,10.07
2018-11-29T20:30:46.596Z,10.23
2018-11-29T20:33:15.460Z,9.30
2018-11-29T20:35:44.342Z,9.00
2018-11-29T20:38:13.221Z,9.67
2018-11-29T20:40:44.655Z,12.90
2018-11-29T20:43:14.105Z,10.63
2018-11-29T20:45:53.897Z,10.20
2018-11-29T20:48:26.811Z,10.03
2018-11-29T20:50:58.176Z,9.67
2018-11-29T20:53:37.667Z,9.93
2018-11-29T20:56:11.151Z,8.07
2018-11-29T20:58:40.067Z,10.07
2018-11-29T21:01:11.164Z,10.33
2018-11-29T21:03:40.952Z,9.97
2018-11-29T21:06:12.418Z,9.43
2018-11-29T21:08:42.373Z,11.07
2018-11-29T21:11:11.896Z,8.63
2018-11-29T21:13:40.861Z,8.43
2018-11-29T21:16:09.875Z,7.67
2018-11-29T21:18:39.833Z,7.97
2018-11-29T21:21:09.577Z,8.13
2018-11-29T21:23:38.507Z,7.67
2018-11-29T21:26:08.534Z,8.43
2018-11-29T21:28:37.772Z,8.33
2018-11-29T21:31:07.425Z,8.77
2018-11-29T21:33:37.051Z,9.17
2018-11-29T21:36:06.379Z,7.27
2018-11-29T21:38:35.846Z,7.70
2018-11-29T21:41:05.837Z,7.27
2018-11-29T21:43:35.559Z,7.27
2018-11-29T21:46:04.468Z,7.47
2018-11-29T21:48:34.115Z,7.40
2018-11-29T21:51:03.148Z,7.80
2018-11-29T21:53:32.982Z,7.53
2018-11-29T21:56:02.466Z,7.27
2018-11-29T21:58:31.433Z,7.00
2018-11-29T22:01:00.403Z,8.37
2018-11-29T22:03:29.858Z,7.73
2018-11-29T22:05:58.867Z,7.40
2018-11-29T22:08:27.916Z,7.60
2018-11-29T22:10:56.835Z,7.20
2018-11-29T22:13:26.131Z,7.17
2018-11-29T22:15:55.092Z,6.87
2018-11-29T22:18:25.488Z,6.53
2018-11-29T22:20:57.195Z,7.00
2018-11-29T22:23:26.646Z,7.43
2018-11-29T22:25:57.734Z,7.00
2018-11-29T22:28:26.828Z,6.57
2018-11-29T22:30:56.351Z,7.10
2018-11-29T22:33:25.798Z,8.10
2018-11-29T22:35:54.917Z,7.13
2018-11-29T22:38:23.937Z,7.07
2018-11-29T22:40:52.931Z,7.80
2018-11-29T22:43:22.480Z,7.27
2018-11-29T22:45:51.530Z,7.80
2018-11-29T22:48:20.649Z,7.73
2018-11-29T22:50:49.638Z,7.57
2018-11-29T22:53:18.783Z,7.77
2018-11-29T22:55:47.693Z,6.90
2018-11-29T22:58:16.568Z,6.97
2018-11-29T23:00:52.623Z,8.10
2018-11-29T23:03:22.031Z,7.53
2018-11-29T23:05:50.932Z,7.77
2018-11-29T23:08:20.578Z,7.37
2018-11-29T23:10:49.451Z,7.23
2018-11-29T23:13:19.199Z,7.27
2018-11-29T23:15:48.128Z,7.20
2018-11-29T23:18:17.119Z,7.07
2018-11-29T23:20:46.009Z,7.60
2018-11-29T23:23:14.888Z,7.07
2018-11-29T23:25:44.180Z,6.80
2018-11-29T23:28:13.151Z,7.67
2018-11-29T23:30:42.393Z,6.93
2018-11-29T23:33:11.288Z,7.17
2018-11-29T23:35:40.191Z,7.43
2018-11-29T23:38:09.016Z,6.50
2018-11-29T23:40:38.037Z,7.27
2018-11-29T23:43:06.899Z,7.10
2018-11-29T23:45:35.804Z,7.37
2018-11-29T23:48:04.683Z,6.97
2018-11-29T23:50:33.628Z,6.33
2018-11-29T23:53:02.583Z,7.07
2018-11-29T23:55:31.695Z,6.50
2018-11-29T23:58:00.506Z,6.67
